sensor_id;sensor_type;location;lat;lon;timestamp;P1;durP1;ratioP1;P2;durP2;ratioP2
3369;SDS011;42042;51.948;7.628;2023-03-11T00:01:44;8.05;;;4.93;;
3369;SDS011;42042;51.948;7.628;2023-03-11T00:04:11;5.95;;;4.93;;
3369;SDS011;42042;51.948;7.628;2023-03-11T00:06:38;6.97;;;3.67;;
3369;SDS011;42042;51.948;7.628;2023-03-11T00:09:06;6.60;;;4.30;;
3369;SDS011;42042;51.948;7.628;2023-03-11T00:11:33;5.80;;;4.45;;
3369;SDS011;42042;51.948;7.628;2023-03-11T00:14:00;4.53;;;3.85;;
3369;SDS011;42042;51.948;7.628;2023-03-11T00:16:29;6.10;;;4.53;;
3369;SDS011;42042;51.948;7.628;2023-03-11T00:18:56;4.22;;;3.65;;
3369;SDS011;42042;51.948;7.628;2023-03-11T00:21:24;3.90;;;3.58;;
3369;SDS011;42042;51.948;7.628;2023-03-11T00:23:51;11.13;;;4.75;;
3369;SDS011;42042;51.948;7.628;2023-03-11T00:26:18;5.00;;;3.70;;
3369;SDS011;42042;51.948;7.628;2023-03-11T00:28:46;6.45;;;4.35;;
3369;SDS011;42042;51.948;7.628;2023-03-11T00:31:13;6.07;;;4.25;;
3369;SDS011;42042;51.948;7.628;2023-03-11T00:33:42;9.63;;;4.40;;
3369;SDS011;42042;51.948;7.628;2023-03-11T00:36:11;7.88;;;4.63;;
3369;SDS011;42042;51.948;7.628;2023-03-11T00:38:42;4.22;;;3.83;;
3369;SDS011;42042;51.948;7.628;2023-03-11T00:41:09;7.30;;;4.40;;
3369;SDS011;42042;51.948;7.628;2023-03-11T00:43:36;5.50;;;4.95;;
3369;SDS011;42042;51.948;7.628;2023-03-11T00:46:04;5.20;;;4.70;;
3369;SDS011;42042;51.948;7.628;2023-03-11T00:48:31;4.63;;;3.78;;
3369;SDS011;42042;51.948;7.628;2023-03-11T00:51:00;5.82;;;4.72;;
3369;SDS011;42042;51.948;7.628;2023-03-11T00:53:27;6.22;;;4.93;;
3369;SDS011;42042;51.948;7.628;2023-03-11T00:55:54;4.88;;;3.80;;
3369;SDS011;42042;51.948;7.628;2023-03-11T00:58:21;5.68;;;4.80;;
3369;SDS011;42042;51.948;7.628;2023-03-11T01:00:52;5.85;;;5.07;;
3369;SDS011;42042;51.948;7.628;2023-03-11T01:03:19;5.30;;;4.80;;
3369;SDS011;42042;51.948;7.628;2023-03-11T01:05:46;5.05;;;4.55;;
3369;SDS011;42042;51.948;7.628;2023-03-11T01:08:15;5.25;;;4.65;;
3369;SDS011;42042;51.948;7.628;2023-03-11T01:10:42;6.55;;;4.25;;
3369;SDS011;42042;51.948;7.628;2023-03-11T01:13:09;5.30;;;3.80;;
3369;SDS011;42042;51.948;7.628;2023-03-11T01:15:36;5.30;;;4.80;;
3369;SDS011;42042;51.948;7.628;2023-03-11T01:18:04;5.63;;;5.03;;
3369;SDS011;42042;51.948;7.628;2023-03-11T01:20:31;6.55;;;4.30;;
3369;SDS011;42042;51.948;7.628;2023-03-11T01:22:59;4.50;;;3.45;;
3369;SDS011;42042;51.948;7.628;2023-03-11T01:25:27;5.00;;;4.53;;
3369;SDS011;42042;51.948;7.628;2023-03-11T01:27:54;6.55;;;5.20;;
3369;SDS011;42042;51.948;7.628;2023-03-11T01:30:23;8.88;;;5.25;;
3369;SDS011;42042;51.948;7.628;2023-03-11T01:32:50;5.05;;;3.70;;
3369;SDS011;42042;51.948;7.628;2023-03-11T01:35:19;4.90;;;3.70;;
3369;SDS011;42042;51.948;7.628;2023-03-11T01:37:46;8.63;;;4.35;;
3369;SDS011;42042;51.948;7.628;2023-03-11T01:40:15;4.30;;;3.90;;
3369;SDS011;42042;51.948;7.628;2023-03-11T01:42:44;4.07;;;3.67;;
3369;SDS011;42042;51.948;7.628;2023-03-11T01:45:28;4.40;;;4.00;;
3369;SDS011;42042;51.948;7.628;2023-03-11T01:47:57;8.25;;;3.90;;
3369;SDS011;42042;51.948;7.628;2023-03-11T01:50:24;6.55;;;3.72;;
3369;SDS011;42042;51.948;7.628;2023-03-11T01:52:53;4.25;;;3.78;;
3369;SDS011;42042;51.948;7.628;2023-03-11T01:55:20;8.88;;;3.20;;
3369;SDS011;42042;51.948;7.628;2023-03-11T01:57:49;6.30;;;3.33;;
3369;SDS011;42042;51.948;7.628;2023-03-11T02:00:17;5.00;;;3.50;;
3369;SDS011;42042;51.948;7.628;2023-03-11T02:02:45;4.55;;;3.50;;
3369;SDS011;42042;51.948;7.628;2023-03-11T02:05:15;6.45;;;3.13;;
3369;SDS011;42042;51.948;7.628;2023-03-11T02:07:42;5.90;;;3.13;;
3369;SDS011;42042;51.948;7.628;2023-03-11T02:10:10;7.63;;;3.30;;
3369;SDS011;42042;51.948;7.628;2023-03-11T02:12:38;4.30;;;3.00;;
3369;SDS011;42042;51.948;7.628;2023-03-11T02:15:08;3.45;;;2.60;;
3369;SDS011;42042;51.948;7.628;2023-03-11T02:17:36;5.10;;;3.70;;
3369;SDS011;42042;51.948;7.628;2023-03-11T02:22:54;3.40;;;3.08;;
3369;SDS011;42042;51.948;7.628;2023-03-11T02:25:23;3.65;;;3.10;;
3369;SDS011;42042;51.948;7.628;2023-03-11T02:27:54;10.07;;;3.55;;
3369;SDS011;42042;51.948;7.628;2023-03-11T02:30:21;3.67;;;3.05;;
3369;SDS011;42042;51.948;7.628;2023-03-11T02:32:49;3.67;;;3.13;;
3369;SDS011;42042;51.948;7.628;2023-03-11T02:35:17;5.07;;;3.90;;
3369;SDS011;42042;51.948;7.628;2023-03-11T02:37:45;5.97;;;3.40;;
3369;SDS011;42042;51.948;7.628;2023-03-11T02:43:00;4.68;;;3.85;;
3369;SDS011;42042;51.948;7.628;2023-03-11T02:45:28;4.47;;;3.35;;
3369;SDS011;42042;51.948;7.628;2023-03-11T02:47:56;6.60;;;3.50;;
3369;SDS011;42042;51.948;7.628;2023-03-11T02:50:24;4.30;;;3.90;;
3369;SDS011;42042;51.948;7.628;2023-03-11T02:52:52;4.38;;;3.90;;
3369;SDS011;42042;51.948;7.628;2023-03-11T02:55:19;4.68;;;3.55;;
3369;SDS011;42042;51.948;7.628;2023-03-11T02:57:47;4.35;;;3.88;;
3369;SDS011;42042;51.948;7.628;2023-03-11T03:00:16;8.15;;;3.63;;
3369;SDS011;42042;51.948;7.628;2023-03-11T03:02:43;7.30;;;2.25;;
3369;SDS011;42042;51.948;7.628;2023-03-11T03:05:15;7.28;;;4.38;;
3369;SDS011;42042;51.948;7.628;2023-03-11T03:07:44;5.25;;;2.58;;
3369;SDS011;42042;51.948;7.628;2023-03-11T03:10:12;5.72;;;2.70;;
3369;SDS011;42042;51.948;7.628;2023-03-11T03:12:39;4.88;;;3.17;;
3369;SDS011;42042;51.948;7.628;2023-03-11T03:15:07;5.18;;;3.67;;
3369;SDS011;42042;51.948;7.628;2023-03-11T03:17:36;4.45;;;2.72;;
3369;SDS011;42042;51.948;7.628;2023-03-11T03:20:04;7.70;;;3.80;;
3369;SDS011;42042;51.948;7.628;2023-03-11T03:22:35;6.90;;;2.92;;
3369;SDS011;42042;51.948;7.628;2023-03-11T03:25:02;3.13;;;2.85;;
3369;SDS011;42042;51.948;7.628;2023-03-11T03:27:30;5.50;;;3.13;;
3369;SDS011;42042;51.948;7.628;2023-03-11T03:29:57;5.38;;;3.90;;
3369;SDS011;42042;51.948;7.628;2023-03-11T03:32:24;26.35;;;3.55;;
3369;SDS011;42042;51.948;7.628;2023-03-11T03:34:53;6.75;;;5.05;;
3369;SDS011;42042;51.948;7.628;2023-03-11T03:37:23;2.85;;;2.55;;
3369;SDS011;42042;51.948;7.628;2023-03-11T03:39:50;3.95;;;2.75;;
3369;SDS011;42042;51.948;7.628;2023-03-11T03:42:17;2.92;;;2.63;;
3369;SDS011;42042;51.948;7.628;2023-03-11T03:44:44;3.70;;;3.08;;
3369;SDS011;42042;51.948;7.628;2023-03-11T03:47:12;4.18;;;3.13;;
3369;SDS011;42042;51.948;7.628;2023-03-11T03:49:39;9.63;;;2.78;;
3369;SDS011;42042;51.948;7.628;2023-03-11T03:52:07;3.63;;;2.55;;
3369;SDS011;42042;51.948;7.628;2023-03-11T03:54:35;3.03;;;2.35;;
3369;SDS011;42042;51.948;7.628;2023-03-11T03:57:02;2.90;;;2.58;;
3369;SDS011;42042;51.948;7.628;2023-03-11T03:59:29;2.63;;;2.42;;
3369;SDS011;42042;51.948;7.628;2023-03-11T04:01:56;12.30;;;2.75;;
3369;SDS011;42042;51.948;7.628;2023-03-11T04:04:24;6.22;;;2.85;;
3369;SDS011;42042;51.948;7.628;2023-03-11T04:06:51;8.98;;;3.15;;
3369;SDS011;42042;51.948;7.628;2023-03-11T04:09:19;7.22;;;3.20;;
3369;SDS011;42042;51.948;7.628;2023-03-11T04:11:46;2.63;;;2.42;;
3369;SDS011;42042;51.948;7.628;2023-03-11T04:14:14;9.90;;;2.40;;
3369;SDS011;42042;51.948;7.628;2023-03-11T04:16:41;5.63;;;2.35;;
3369;SDS011;42042;51.948;7.628;2023-03-11T04:19:08;7.78;;;2.90;;
3369;SDS011;42042;51.948;7.628;2023-03-11T04:21:35;6.05;;;2.33;;
3369;SDS011;42042;51.948;7.628;2023-03-11T04:24:02;3.97;;;2.45;;
3369;SDS011;42042;51.948;7.628;2023-03-11T04:26:31;3.70;;;1.90;;
3369;SDS011;42042;51.948;7.628;2023-03-11T04:28:58;6.47;;;3.08;;
3369;SDS011;42042;51.948;7.628;2023-03-11T04:31:25;4.07;;;2.90;;
3369;SDS011;42042;51.948;7.628;2023-03-11T04:33:52;2.75;;;2.55;;
3369;SDS011;42042;51.948;7.628;2023-03-11T04:36:20;3.13;;;2.65;;
3369;SDS011;42042;51.948;7.628;2023-03-11T04:38:47;4.10;;;2.33;;
3369;SDS011;42042;51.948;7.628;2023-03-11T04:41:14;3.72;;;1.95;;
3369;SDS011;42042;51.948;7.628;2023-03-11T04:43:42;4.15;;;2.50;;
3369;SDS011;42042;51.948;7.628;2023-03-11T04:46:10;3.38;;;2.25;;
3369;SDS011;42042;51.948;7.628;2023-03-11T04:48:37;4.03;;;2.45;;
3369;SDS011;42042;51.948;7.628;2023-03-11T04:51:04;6.72;;;2.42;;
3369;SDS011;42042;51.948;7.628;2023-03-11T04:53:31;4.47;;;2.03;;
3369;SDS011;42042;51.948;7.628;2023-03-11T04:55:58;5.60;;;2.58;;
3369;SDS011;42042;51.948;7.628;2023-03-11T04:58:26;3.97;;;2.35;;
3369;SDS011;42042;51.948;7.628;2023-03-11T05:00:54;4.97;;;2.50;;
3369;SDS011;42042;51.948;7.628;2023-03-11T05:03:21;2.55;;;2.03;;
3369;SDS011;42042;51.948;7.628;2023-03-11T05:05:49;3.90;;;2.30;;
3369;SDS011;42042;51.948;7.628;2023-03-11T05:08:18;4.43;;;2.25;;
3369;SDS011;42042;51.948;7.628;2023-03-11T05:10:45;8.63;;;2.15;;
3369;SDS011;42042;51.948;7.628;2023-03-11T05:13:13;2.70;;;2.35;;
3369;SDS011;42042;51.948;7.628;2023-03-11T05:15:40;2.80;;;2.05;;
3369;SDS011;42042;51.948;7.628;2023-03-11T05:18:08;4.18;;;2.35;;
3369;SDS011;42042;51.948;7.628;2023-03-11T05:20:35;27.20;;;3.17;;
3369;SDS011;42042;51.948;7.628;2023-03-11T05:23:03;5.22;;;2.15;;
3369;SDS011;42042;51.948;7.628;2023-03-11T05:25:30;10.50;;;3.10;;
3369;SDS011;42042;51.948;7.628;2023-03-11T05:27:57;6.28;;;2.13;;
3369;SDS011;42042;51.948;7.628;2023-03-11T05:30:24;2.40;;;2.20;;
3369;SDS011;42042;51.948;7.628;2023-03-11T05:32:52;7.25;;;2.47;;
3369;SDS011;42042;51.948;7.628;2023-03-11T05:35:21;6.97;;;2.40;;
3369;SDS011;42042;51.948;7.628;2023-03-11T05:37:49;4.97;;;2.90;;
3369;SDS011;42042;51.948;7.628;2023-03-11T05:40:17;3.90;;;2.20;;
3369;SDS011;42042;51.948;7.628;2023-03-11T05:42:44;12.05;;;2.53;;
3369;SDS011;42042;51.948;7.628;2023-03-11T05:45:12;6.88;;;2.33;;
3369;SDS011;42042;51.948;7.628;2023-03-11T05:47:39;4.88;;;2.33;;
3369;SDS011;42042;51.948;7.628;2023-03-11T05:50:07;4.90;;;2.22;;
3369;SDS011;42042;51.948;7.628;2023-03-11T05:52:37;6.97;;;2.40;;
3369;SDS011;42042;51.948;7.628;2023-03-11T05:55:04;4.47;;;2.55;;
3369;SDS011;42042;51.948;7.628;2023-03-11T05:57:33;3.80;;;2.50;;
3369;SDS011;42042;51.948;7.628;2023-03-11T06:00:01;4.65;;;2.05;;
3369;SDS011;42042;51.948;7.628;2023-03-11T06:02:29;5.20;;;3.00;;
3369;SDS011;42042;51.948;7.628;2023-03-11T06:04:57;3.15;;;1.85;;
3369;SDS011;42042;51.948;7.628;2023-03-11T06:07:24;4.05;;;2.10;;
3369;SDS011;42042;51.948;7.628;2023-03-11T06:09:52;4.68;;;2.40;;
3369;SDS011;42042;51.948;7.628;2023-03-11T06:12:19;2.53;;;2.00;;
3369;SDS011;42042;51.948;7.628;2023-03-11T06:14:47;7.00;;;2.42;;
3369;SDS011;42042;51.948;7.628;2023-03-11T06:17:14;13.00;;;3.00;;
3369;SDS011;42042;51.948;7.628;2023-03-11T06:19:41;2.35;;;2.15;;
3369;SDS011;42042;51.948;7.628;2023-03-11T06:22:08;3.53;;;1.95;;
3369;SDS011;42042;51.948;7.628;2023-03-11T06:24:36;6.07;;;2.00;;
3369;SDS011;42042;51.948;7.628;2023-03-11T06:27:04;7.13;;;2.50;;
3369;SDS011;42042;51.948;7.628;2023-03-11T06:29:33;8.43;;;2.72;;
3369;SDS011;42042;51.948;7.628;2023-03-11T06:32:00;7.28;;;2.17;;
3369;SDS011;42042;51.948;7.628;2023-03-11T06:34:27;5.43;;;2.50;;
3369;SDS011;42042;51.948;7.628;2023-03-11T06:36:54;2.80;;;2.20;;
3369;SDS011;42042;51.948;7.628;2023-03-11T06:39:23;5.88;;;2.67;;
3369;SDS011;42042;51.948;7.628;2023-03-11T06:41:50;4.68;;;1.85;;
3369;SDS011;42042;51.948;7.628;2023-03-11T06:44:19;4.40;;;1.92;;
3369;SDS011;42042;51.948;7.628;2023-03-11T06:46:46;16.60;;;3.58;;
3369;SDS011;42042;51.948;7.628;2023-03-11T06:49:13;6.50;;;2.50;;
3369;SDS011;42042;51.948;7.628;2023-03-11T06:51:40;2.50;;;2.17;;
3369;SDS011;42042;51.948;7.628;2023-03-11T06:54:08;5.57;;;2.97;;
3369;SDS011;42042;51.948;7.628;2023-03-11T06:56:36;2.90;;;2.05;;
3369;SDS011;42042;51.948;7.628;2023-03-11T06:59:03;8.70;;;2.40;;
3369;SDS011;42042;51.948;7.628;2023-03-11T07:01:32;5.57;;;2.40;;
3369;SDS011;42042;51.948;7.628;2023-03-11T07:03:59;5.00;;;2.20;;
3369;SDS011;42042;51.948;7.628;2023-03-11T07:06:26;3.35;;;2.10;;
3369;SDS011;42042;51.948;7.628;2023-03-11T07:08:55;1.92;;;1.70;;
3369;SDS011;42042;51.948;7.628;2023-03-11T07:11:22;4.65;;;2.13;;
3369;SDS011;42042;51.948;7.628;2023-03-11T07:13:50;2.63;;;2.33;;
3369;SDS011;42042;51.948;7.628;2023-03-11T07:16:18;5.85;;;3.22;;
3369;SDS011;42042;51.948;7.628;2023-03-11T07:18:47;6.45;;;2.85;;
3369;SDS011;42042;51.948;7.628;2023-03-11T07:21:16;3.17;;;2.35;;
3369;SDS011;42042;51.948;7.628;2023-03-11T07:23:43;4.25;;;2.10;;
3369;SDS011;42042;51.948;7.628;2023-03-11T07:26:11;3.78;;;2.35;;
3369;SDS011;42042;51.948;7.628;2023-03-11T07:28:38;3.55;;;1.90;;
3369;SDS011;42042;51.948;7.628;2023-03-11T07:31:06;6.55;;;2.20;;
3369;SDS011;42042;51.948;7.628;2023-03-11T07:33:34;6.45;;;1.80;;
3369;SDS011;42042;51.948;7.628;2023-03-11T07:36:07;3.72;;;2.45;;
3369;SDS011;42042;51.948;7.628;2023-03-11T07:38:35;4.60;;;2.00;;
3369;SDS011;42042;51.948;7.628;2023-03-11T07:41:02;2.85;;;2.05;;
3369;SDS011;42042;51.948;7.628;2023-03-11T07:43:29;3.50;;;2.30;;
3369;SDS011;42042;51.948;7.628;2023-03-11T07:46:04;6.30;;;2.40;;
3369;SDS011;42042;51.948;7.628;2023-03-11T07:48:31;9.05;;;2.67;;
3369;SDS011;42042;51.948;7.628;2023-03-11T07:50:59;4.15;;;2.30;;
3369;SDS011;42042;51.948;7.628;2023-03-11T07:53:28;4.70;;;2.30;;
3369;SDS011;42042;51.948;7.628;2023-03-11T07:55:55;7.47;;;2.90;;
3369;SDS011;42042;51.948;7.628;2023-03-11T07:58:22;1.35;;;1.25;;
3369;SDS011;42042;51.948;7.628;2023-03-11T08:00:49;6.13;;;1.80;;
3369;SDS011;42042;51.948;7.628;2023-03-11T08:03:17;7.18;;;2.03;;
3369;SDS011;42042;51.948;7.628;2023-03-11T08:05:44;4.68;;;2.50;;
3369;SDS011;42042;51.948;7.628;2023-03-11T08:08:11;6.63;;;2.08;;
3369;SDS011;42042;51.948;7.628;2023-03-11T08:10:40;8.63;;;2.13;;
3369;SDS011;42042;51.948;7.628;2023-03-11T08:13:07;7.70;;;2.30;;
3369;SDS011;42042;51.948;7.628;2023-03-11T08:15:35;5.53;;;2.60;;
3369;SDS011;42042;51.948;7.628;2023-03-11T08:18:02;3.78;;;2.90;;
3369;SDS011;42042;51.948;7.628;2023-03-11T08:20:30;5.00;;;2.10;;
3369;SDS011;42042;51.948;7.628;2023-03-11T08:22:57;2.67;;;2.40;;
3369;SDS011;42042;51.948;7.628;2023-03-11T08:25:25;2.30;;;1.98;;
3369;SDS011;42042;51.948;7.628;2023-03-11T08:27:53;4.93;;;2.47;;
3369;SDS011;42042;51.948;7.628;2023-03-11T08:30:20;2.58;;;1.80;;
3369;SDS011;42042;51.948;7.628;2023-03-11T08:32:48;2.38;;;1.65;;
3369;SDS011;42042;51.948;7.628;2023-03-11T08:35:15;8.00;;;2.83;;
3369;SDS011;42042;51.948;7.628;2023-03-11T08:37:42;8.90;;;2.35;;
3369;SDS011;42042;51.948;7.628;2023-03-11T08:40:10;10.15;;;2.47;;
3369;SDS011;42042;51.948;7.628;2023-03-11T08:42:38;3.28;;;2.47;;
3369;SDS011;42042;51.948;7.628;2023-03-11T08:45:08;5.60;;;2.63;;
3369;SDS011;42042;51.948;7.628;2023-03-11T08:47:36;9.50;;;2.42;;
3369;SDS011;42042;51.948;7.628;2023-03-11T08:50:04;3.88;;;1.90;;
3369;SDS011;42042;51.948;7.628;2023-03-11T08:52:32;6.45;;;2.22;;
3369;SDS011;42042;51.948;7.628;2023-03-11T08:54:59;3.67;;;1.52;;
3369;SDS011;42042;51.948;7.628;2023-03-11T08:57:27;2.97;;;1.98;;
3369;SDS011;42042;51.948;7.628;2023-03-11T08:59:54;6.97;;;2.53;;
3369;SDS011;42042;51.948;7.628;2023-03-11T09:02:23;6.75;;;2.35;;
3369;SDS011;42042;51.948;7.628;2023-03-11T09:04:50;3.70;;;2.03;;
3369;SDS011;42042;51.948;7.628;2023-03-11T09:07:18;9.60;;;2.00;;
3369;SDS011;42042;51.948;7.628;2023-03-11T09:09:45;6.45;;;2.00;;
3369;SDS011;42042;51.948;7.628;2023-03-11T09:12:12;2.88;;;2.10;;
3369;SDS011;42042;51.948;7.628;2023-03-11T09:14:39;2.45;;;1.80;;
3369;SDS011;42042;51.948;7.628;2023-03-11T09:17:07;3.97;;;2.30;;
3369;SDS011;42042;51.948;7.628;2023-03-11T09:19:35;2.08;;;1.83;;
3369;SDS011;42042;51.948;7.628;2023-03-11T09:22:03;1.85;;;1.70;;
3369;SDS011;42042;51.948;7.628;2023-03-11T09:24:31;2.30;;;2.10;;
3369;SDS011;42042;51.948;7.628;2023-03-11T09:26:58;3.88;;;2.28;;
3369;SDS011;42042;51.948;7.628;2023-03-11T09:29:25;3.95;;;2.00;;
3369;SDS011;42042;51.948;7.628;2023-03-11T09:31:53;2.65;;;1.83;;
3369;SDS011;42042;51.948;7.628;2023-03-11T09:34:20;4.28;;;2.20;;
3369;SDS011;42042;51.948;7.628;2023-03-11T09:36:49;8.50;;;1.35;;
3369;SDS011;42042;51.948;7.628;2023-03-11T09:39:16;6.93;;;1.80;;
3369;SDS011;42042;51.948;7.628;2023-03-11T09:41:45;11.50;;;4.25;;
3369;SDS011;42042;51.948;7.628;2023-03-11T09:44:16;4.50;;;1.70;;
3369;SDS011;42042;51.948;7.628;2023-03-11T09:49:28;1.92;;;1.73;;
3369;SDS011;42042;51.948;7.628;2023-03-11T09:52:02;11.55;;;2.47;;
3369;SDS011;42042;51.948;7.628;2023-03-11T09:54:33;7.07;;;2.45;;
3369;SDS011;42042;51.948;7.628;2023-03-11T09:57:05;2.13;;;1.42;;
3369;SDS011;42042;51.948;7.628;2023-03-11T09:59:34;4.00;;;1.85;;
3369;SDS011;42042;51.948;7.628;2023-03-11T10:02:02;2.72;;;1.70;;
3369;SDS011;42042;51.948;7.628;2023-03-11T10:04:32;3.70;;;1.77;;
3369;SDS011;42042;51.948;7.628;2023-03-11T10:07:05;4.32;;;2.10;;
3369;SDS011;42042;51.948;7.628;2023-03-11T10:09:36;5.82;;;1.90;;
3369;SDS011;42042;51.948;7.628;2023-03-11T10:12:11;1.80;;;1.70;;
3369;SDS011;42042;51.948;7.628;2023-03-11T10:14:43;4.78;;;2.10;;
3369;SDS011;42042;51.948;7.628;2023-03-11T10:17:14;5.57;;;1.45;;
3369;SDS011;42042;51.948;7.628;2023-03-11T10:19:45;3.17;;;1.85;;
3369;SDS011;42042;51.948;7.628;2023-03-11T10:22:16;2.33;;;1.73;;
3369;SDS011;42042;51.948;7.628;2023-03-11T10:24:53;1.55;;;1.45;;
3369;SDS011;42042;51.948;7.628;2023-03-11T10:27:24;2.55;;;1.58;;
3369;SDS011;42042;51.948;7.628;2023-03-11T10:29:56;2.85;;;1.70;;
3369;SDS011;42042;51.948;7.628;2023-03-11T10:32:24;8.13;;;1.70;;
3369;SDS011;42042;51.948;7.628;2023-03-11T10:34:56;5.90;;;1.70;;
3369;SDS011;42042;51.948;7.628;2023-03-11T10:37:26;2.95;;;1.58;;
3369;SDS011;42042;51.948;7.628;2023-03-11T10:39:56;1.25;;;1.15;;
3369;SDS011;42042;51.948;7.628;2023-03-11T10:42:29;4.30;;;1.30;;
3369;SDS011;42042;51.948;7.628;2023-03-11T10:44:58;1.63;;;1.50;;
3369;SDS011;42042;51.948;7.628;2023-03-11T10:47:26;1.65;;;1.55;;
3369;SDS011;42042;51.948;7.628;2023-03-11T10:49:55;3.05;;;2.15;;
3369;SDS011;42042;51.948;7.628;2023-03-11T10:52:22;2.22;;;1.60;;
3369;SDS011;42042;51.948;7.628;2023-03-11T10:54:58;2.10;;;1.50;;
3369;SDS011;42042;51.948;7.628;2023-03-11T10:57:27;2.90;;;1.30;;
3369;SDS011;42042;51.948;7.628;2023-03-11T10:59:55;4.63;;;1.30;;
3369;SDS011;42042;51.948;7.628;2023-03-11T11:02:24;2.88;;;1.33;;
3369;SDS011;42042;51.948;7.628;2023-03-11T11:05:02;2.35;;;1.30;;
3369;SDS011;42042;51.948;7.628;2023-03-11T11:07:31;2.33;;;1.50;;
3369;SDS011;42042;51.948;7.628;2023-03-11T11:10:17;7.55;;;1.98;;
3369;SDS011;42042;51.948;7.628;2023-03-11T11:12:54;3.55;;;1.60;;
3369;SDS011;42042;51.948;7.628;2023-03-11T11:15:25;5.35;;;1.50;;
3369;SDS011;42042;51.948;7.628;2023-03-11T11:17:53;4.50;;;1.60;;
3369;SDS011;42042;51.948;7.628;2023-03-11T11:20:22;3.67;;;1.40;;
3369;SDS011;42042;51.948;7.628;2023-03-11T11:22:50;3.35;;;1.88;;
3369;SDS011;42042;51.948;7.628;2023-03-11T11:25:27;2.88;;;1.45;;
3369;SDS011;42042;51.948;7.628;2023-03-11T11:27:55;2.25;;;2.10;;
3369;SDS011;42042;51.948;7.628;2023-03-11T11:30:22;2.97;;;1.95;;
3369;SDS011;42042;51.948;7.628;2023-03-11T11:32:50;13.65;;;2.40;;
3369;SDS011;42042;51.948;7.628;2023-03-11T11:35:20;4.35;;;1.88;;
3369;SDS011;42042;51.948;7.628;2023-03-11T11:37:47;2.58;;;1.50;;
3369;SDS011;42042;51.948;7.628;2023-03-11T11:40:22;8.77;;;1.48;;
3369;SDS011;42042;51.948;7.628;2023-03-11T11:42:51;3.60;;;1.50;;
3369;SDS011;42042;51.948;7.628;2023-03-11T11:45:23;3.35;;;1.60;;
3369;SDS011;42042;51.948;7.628;2023-03-11T11:47:53;3.45;;;1.63;;
3369;SDS011;42042;51.948;7.628;2023-03-11T11:50:24;3.17;;;1.58;;
3369;SDS011;42042;51.948;7.628;2023-03-11T11:52:52;1.55;;;1.45;;
3369;SDS011;42042;51.948;7.628;2023-03-11T11:55:23;7.43;;;2.10;;
3369;SDS011;42042;51.948;7.628;2023-03-11T11:57:51;5.10;;;1.90;;
3369;SDS011;42042;51.948;7.628;2023-03-11T12:00:19;7.43;;;1.98;;
3369;SDS011;42042;51.948;7.628;2023-03-11T12:02:56;5.65;;;2.00;;
3369;SDS011;42042;51.948;7.628;2023-03-11T12:05:28;2.95;;;1.50;;
3369;SDS011;42042;51.948;7.628;2023-03-11T12:08:00;3.15;;;1.42;;
3369;SDS011;42042;51.948;7.628;2023-03-11T12:10:30;3.13;;;1.70;;
3369;SDS011;42042;51.948;7.628;2023-03-11T12:13:15;2.05;;;1.52;;
3369;SDS011;42042;51.948;7.628;2023-03-11T12:15:46;4.30;;;1.60;;
3369;SDS011;42042;51.948;7.628;2023-03-11T12:18:16;7.18;;;2.03;;
3369;SDS011;42042;51.948;7.628;2023-03-11T12:20:46;3.33;;;1.75;;
3369;SDS011;42042;51.948;7.628;2023-03-11T12:23:17;2.22;;;1.75;;
3369;SDS011;42042;51.948;7.628;2023-03-11T12:25:52;1.80;;;1.45;;
3369;SDS011;42042;51.948;7.628;2023-03-11T12:28:23;1.60;;;1.50;;
3369;SDS011;42042;51.948;7.628;2023-03-11T12:30:54;1.55;;;1.45;;
3369;SDS011;42042;51.948;7.628;2023-03-11T12:33:24;8.77;;;1.65;;
3369;SDS011;42042;51.948;7.628;2023-03-11T12:35:53;10.40;;;2.03;;
3369;SDS011;42042;51.948;7.628;2023-03-11T12:38:23;1.77;;;1.67;;
3369;SDS011;42042;51.948;7.628;2023-03-11T12:40:57;2.35;;;1.42;;
3369;SDS011;42042;51.948;7.628;2023-03-11T12:46:08;1.55;;;1.45;;
3369;SDS011;42042;51.948;7.628;2023-03-11T12:48:40;1.80;;;1.10;;
3369;SDS011;42042;51.948;7.628;2023-03-11T12:53:51;3.47;;;1.95;;
3369;SDS011;42042;51.948;7.628;2023-03-11T12:56:21;6.43;;;1.90;;
3369;SDS011;42042;51.948;7.628;2023-03-11T12:58:54;1.95;;;1.75;;
3369;SDS011;42042;51.948;7.628;2023-03-11T13:01:48;2.20;;;1.50;;
3369;SDS011;42042;51.948;7.628;2023-03-11T13:04:19;1.50;;;1.40;;
3369;SDS011;42042;51.948;7.628;2023-03-11T13:06:56;2.55;;;1.50;;
3369;SDS011;42042;51.948;7.628;2023-03-11T13:09:27;2.65;;;1.48;;
3369;SDS011;42042;51.948;7.628;2023-03-11T13:11:54;4.85;;;1.90;;
3369;SDS011;42042;51.948;7.628;2023-03-11T13:14:24;1.98;;;1.60;;
3369;SDS011;42042;51.948;7.628;2023-03-11T13:16:55;2.25;;;1.58;;
3369;SDS011;42042;51.948;7.628;2023-03-11T13:19:36;2.22;;;1.55;;
3369;SDS011;42042;51.948;7.628;2023-03-11T13:22:04;3.50;;;1.20;;
3369;SDS011;42042;51.948;7.628;2023-03-11T13:24:50;4.80;;;1.30;;
3369;SDS011;42042;51.948;7.628;2023-03-11T13:27:30;1.50;;;1.40;;
3369;SDS011;42042;51.948;7.628;2023-03-11T13:29:59;1.40;;;1.30;;
3369;SDS011;42042;51.948;7.628;2023-03-11T13:35:21;3.05;;;2.53;;
3369;SDS011;42042;51.948;7.628;2023-03-11T13:37:50;2.38;;;1.73;;
3369;SDS011;42042;51.948;7.628;2023-03-11T13:40:27;1.50;;;1.40;;
3369;SDS011;42042;51.948;7.628;2023-03-11T13:42:56;5.35;;;1.80;;
3369;SDS011;42042;51.948;7.628;2023-03-11T13:45:26;2.80;;;1.60;;
3369;SDS011;42042;51.948;7.628;2023-03-11T13:47:55;1.90;;;1.80;;
3369;SDS011;42042;51.948;7.628;2023-03-11T13:50:25;2.60;;;2.30;;
3369;SDS011;42042;51.948;7.628;2023-03-11T13:52:54;4.65;;;1.77;;
3369;SDS011;42042;51.948;7.628;2023-03-11T13:55:24;4.82;;;2.30;;
3369;SDS011;42042;51.948;7.628;2023-03-11T13:57:53;2.38;;;1.75;;
3369;SDS011;42042;51.948;7.628;2023-03-11T14:00:21;2.20;;;1.70;;
3369;SDS011;42042;51.948;7.628;2023-03-11T14:02:50;3.80;;;2.22;;
3369;SDS011;42042;51.948;7.628;2023-03-11T14:05:21;5.38;;;2.00;;
3369;SDS011;42042;51.948;7.628;2023-03-11T14:07:49;6.38;;;2.75;;
3369;SDS011;42042;51.948;7.628;2023-03-11T14:10:18;2.22;;;1.80;;
3369;SDS011;42042;51.948;7.628;2023-03-11T14:12:45;3.47;;;2.05;;
3369;SDS011;42042;51.948;7.628;2023-03-11T14:15:13;3.83;;;1.73;;
3369;SDS011;42042;51.948;7.628;2023-03-11T14:17:42;2.80;;;1.90;;
3369;SDS011;42042;51.948;7.628;2023-03-11T14:20:11;3.08;;;2.28;;
3369;SDS011;42042;51.948;7.628;2023-03-11T14:22:40;3.25;;;1.83;;
3369;SDS011;42042;51.948;7.628;2023-03-11T14:25:13;4.40;;;1.80;;
3369;SDS011;42042;51.948;7.628;2023-03-11T14:27:44;3.13;;;1.80;;
3369;SDS011;42042;51.948;7.628;2023-03-11T14:30:17;1.83;;;1.73;;
3369;SDS011;42042;51.948;7.628;2023-03-11T14:32:54;2.58;;;1.63;;
3369;SDS011;42042;51.948;7.628;2023-03-11T14:35:21;4.53;;;1.90;;
3369;SDS011;42042;51.948;7.628;2023-03-11T14:37:49;1.58;;;1.45;;
3369;SDS011;42042;51.948;7.628;2023-03-11T14:40:22;3.03;;;1.77;;
3369;SDS011;42042;51.948;7.628;2023-03-11T14:42:50;3.33;;;1.67;;
3369;SDS011;42042;51.948;7.628;2023-03-11T14:45:19;1.80;;;1.40;;
3369;SDS011;42042;51.948;7.628;2023-03-11T14:47:48;2.50;;;1.30;;
3369;SDS011;42042;51.948;7.628;2023-03-11T14:50:18;3.35;;;1.73;;
3369;SDS011;42042;51.948;7.628;2023-03-11T14:52:46;2.20;;;1.70;;
3369;SDS011;42042;51.948;7.628;2023-03-11T14:55:15;1.50;;;1.38;;
3369;SDS011;42042;51.948;7.628;2023-03-11T14:57:45;2.75;;;1.70;;
3369;SDS011;42042;51.948;7.628;2023-03-11T15:00:14;3.28;;;1.70;;
3369;SDS011;42042;51.948;7.628;2023-03-11T15:02:43;4.10;;;2.00;;
3369;SDS011;42042;51.948;7.628;2023-03-11T15:05:15;1.60;;;1.50;;
3369;SDS011;42042;51.948;7.628;2023-03-11T15:07:43;4.90;;;1.50;;
3369;SDS011;42042;51.948;7.628;2023-03-11T15:10:11;2.88;;;1.75;;
3369;SDS011;42042;51.948;7.628;2023-03-11T15:12:40;4.10;;;1.42;;
3369;SDS011;42042;51.948;7.628;2023-03-11T15:15:25;5.20;;;1.65;;
3369;SDS011;42042;51.948;7.628;2023-03-11T15:17:54;1.70;;;1.60;;
3369;SDS011;42042;51.948;7.628;2023-03-11T15:20:25;3.25;;;1.45;;
3369;SDS011;42042;51.948;7.628;2023-03-11T15:22:53;5.60;;;1.38;;
3369;SDS011;42042;51.948;7.628;2023-03-11T15:25:26;3.55;;;2.05;;
3369;SDS011;42042;51.948;7.628;2023-03-11T15:27:53;4.55;;;1.80;;